sensor_id;sensor_type;location;lat;lon;timestamp;pressure;altitude;pressure_sealevel;temperature;humidity
74722;BME280;63470;49.826;6.740;2023-06-26T00:00:05;100047.78;;;17.10;47.34
74722;BME280;63470;49.826;6.740;2023-06-26T00:02:35;100042.80;;;17.08;47.30
74722;BME280;63470;49.826;6.740;2023-06-26T00:05:06;100044.82;;;17.02;47.33
74722;BME280;63470;49.826;6.740;2023-06-26T00:07:37;100046.87;;;16.97;47.40
74722;BME280;63470;49.826;6.740;2023-06-26T00:10:09;100049.03;;;16.97;47.39
74722;BME280;63470;49.826;6.740;2023-06-26T00:12:39;100048.20;;;16.95;47.34
74722;BME280;63470;49.826;6.740;2023-06-26T00:15:06;100051.03;;;16.92;47.37
74722;BME280;63470;49.826;6.740;2023-06-26T00:17:42;100051.14;;;16.86;47.38
74722;BME280;63470;49.826;6.740;2023-06-26T00:20:09;100050.84;;;16.75;47.41
74722;BME280;63470;49.826;6.740;2023-06-26T00:22:37;100052.14;;;16.65;47.48
74722;BME280;63470;49.826;6.740;2023-06-26T00:25:12;100053.25;;;16.55;47.57
74722;BME280;63470;49.826;6.740;2023-06-26T00:27:37;100059.53;;;16.48;47.59
74722;BME280;63470;49.826;6.740;2023-06-26T00:30:09;100057.55;;;16.41;47.63
74722;BME280;63470;49.826;6.740;2023-06-26T00:32:43;100054.50;;;16.36;47.66
74722;BME280;63470;49.826;6.740;2023-06-26T00:35:09;100055.31;;;16.35;47.63
74722;BME280;63470;49.826;6.740;2023-06-26T00:37:39;100054.76;;;16.32;47.67
74722;BME280;63470;49.826;6.740;2023-06-26T00:40:10;100052.64;;;16.30;47.67
74722;BME280;63470;49.826;6.740;2023-06-26T00:43:03;100056.08;;;16.27;47.71
74722;BME280;63470;49.826;6.740;2023-06-26T00:45:11;100055.31;;;16.28;47.74
74722;BME280;63470;49.826;6.740;2023-06-26T00:47:42;100052.97;;;16.30;47.71
74722;BME280;63470;49.826;6.740;2023-06-26T00:50:12;100052.75;;;16.29;47.75
74722;BME280;63470;49.826;6.740;2023-06-26T00:52:43;100052.66;;;16.29;47.77
74722;BME280;63470;49.826;6.740;2023-06-26T00:55:27;100051.89;;;16.31;47.76
74722;BME280;63470;49.826;6.740;2023-06-26T00:57:47;100049.99;;;16.33;47.71
74722;BME280;63470;49.826;6.740;2023-06-26T01:00:15;100046.34;;;16.32;47.72
74722;BME280;63470;49.826;6.740;2023-06-26T01:02:44;100046.39;;;16.35;47.68
74722;BME280;63470;49.826;6.740;2023-06-26T01:05:21;100043.56;;;16.41;47.59
74722;BME280;63470;49.826;6.740;2023-06-26T01:07:49;100044.58;;;16.43;47.55
74722;BME280;63470;49.826;6.740;2023-06-26T01:10:17;100048.04;;;16.40;47.54
74722;BME280;63470;49.826;6.740;2023-06-26T01:12:47;100047.48;;;16.33;47.57
74722;BME280;63470;49.826;6.740;2023-06-26T01:15:18;100044.61;;;16.24;47.61
74722;BME280;63470;49.826;6.740;2023-06-26T01:17:49;100043.11;;;16.14;47.64
74722;BME280;63470;49.826;6.740;2023-06-26T01:20:20;100044.70;;;16.08;47.64
74722;BME280;63470;49.826;6.740;2023-06-26T01:23:20;100043.76;;;16.03;47.64
74722;BME280;63470;49.826;6.740;2023-06-26T01:27:53;100039.29;;;15.94;47.77
74722;BME280;63470;49.826;6.740;2023-06-26T01:30:25;100045.59;;;15.89;47.83
74722;BME280;63470;49.826;6.740;2023-06-26T01:32:54;100044.12;;;15.86;47.88
74722;BME280;63470;49.826;6.740;2023-06-26T01:35:29;100030.29;;;15.87;47.85
74722;BME280;63470;49.826;6.740;2023-06-26T01:38:15;100030.22;;;15.86;47.83
74722;BME280;63470;49.826;6.740;2023-06-26T01:40:25;100026.38;;;15.87;47.79
74722;BME280;63470;49.826;6.740;2023-06-26T01:42:58;100029.28;;;15.87;47.78
74722;BME280;63470;49.826;6.740;2023-06-26T01:45:31;100026.45;;;15.93;47.71
74722;BME280;63470;49.826;6.740;2023-06-26T01:48:01;100022.30;;;15.95;47.70
74722;BME280;63470;49.826;6.740;2023-06-26T01:50:32;100022.55;;;15.94;47.71
74722;BME280;63470;49.826;6.740;2023-06-26T01:53:12;100023.91;;;15.96;47.71
74722;BME280;63470;49.826;6.740;2023-06-26T01:55:45;100032.02;;;15.95;47.75
74722;BME280;63470;49.826;6.740;2023-06-26T01:58:03;100035.79;;;15.92;47.76
74722;BME280;63470;49.826;6.740;2023-06-26T02:00:33;100034.62;;;15.88;47.75
74722;BME280;63470;49.826;6.740;2023-06-26T02:03:04;100043.11;;;15.82;47.78
74722;BME280;63470;49.826;6.740;2023-06-26T02:05:36;100042.03;;;15.74;47.84
74722;BME280;63470;49.826;6.740;2023-06-26T02:08:08;100037.18;;;15.69;47.89
74722;BME280;63470;49.826;6.740;2023-06-26T02:10:32;100031.70;;;15.66;47.84
74722;BME280;63470;49.826;6.740;2023-06-26T02:13:03;100032.03;;;15.64;47.86
74722;BME280;63470;49.826;6.740;2023-06-26T02:15:37;100033.50;;;15.63;47.90
74722;BME280;63470;49.826;6.740;2023-06-26T02:18:07;100033.84;;;15.65;47.87
74722;BME280;63470;49.826;6.740;2023-06-26T02:20:36;100028.20;;;15.64;47.88
74722;BME280;63470;49.826;6.740;2023-06-26T02:23:08;100024.95;;;15.63;47.93
74722;BME280;63470;49.826;6.740;2023-06-26T02:25:34;100028.27;;;15.63;47.95
74722;BME280;63470;49.826;6.740;2023-06-26T02:28:04;100026.72;;;15.66;47.91
74722;BME280;63470;49.826;6.740;2023-06-26T02:30:34;100026.89;;;15.64;47.92
74722;BME280;63470;49.826;6.740;2023-06-26T02:33:05;100039.17;;;15.58;47.95
74722;BME280;63470;49.826;6.740;2023-06-26T02:35:35;100035.00;;;15.52;48.00
74722;BME280;63470;49.826;6.740;2023-06-26T02:38:06;100031.42;;;15.46;48.00
74722;BME280;63470;49.826;6.740;2023-06-26T02:40:36;100034.50;;;15.43;48.01
74722;BME280;63470;49.826;6.740;2023-06-26T02:43:06;100035.28;;;15.40;48.07
74722;BME280;63470;49.826;6.740;2023-06-26T02:45:37;100033.52;;;15.36;48.12
74722;BME280;63470;49.826;6.740;2023-06-26T02:48:08;100036.78;;;15.35;48.12
74722;BME280;63470;49.826;6.740;2023-06-26T02:50:38;100035.17;;;15.34;48.12
74722;BME280;63470;49.826;6.740;2023-06-26T02:53:09;100038.68;;;15.34;48.11
74722;BME280;63470;49.826;6.740;2023-06-26T02:55:38;100033.59;;;15.30;48.13
74722;BME280;63470;49.826;6.740;2023-06-26T02:58:09;100038.13;;;15.27;48.17
74722;BME280;63470;49.826;6.740;2023-06-26T03:00:42;100041.23;;;15.23;48.20
74722;BME280;63470;49.826;6.740;2023-06-26T03:03:10;100040.16;;;15.19;48.28
74722;BME280;63470;49.826;6.740;2023-06-26T03:05:46;100039.55;;;15.20;48.29
74722;BME280;63470;49.826;6.740;2023-06-26T03:08:11;100033.81;;;15.22;48.27
74722;BME280;63470;49.826;6.740;2023-06-26T03:10:41;100042.56;;;15.26;48.23
74722;BME280;63470;49.826;6.740;2023-06-26T03:13:12;100039.18;;;15.32;48.21
74722;BME280;63470;49.826;6.740;2023-06-26T03:15:42;100037.55;;;15.41;48.05
74722;BME280;63470;49.826;6.740;2023-06-26T03:18:13;100041.33;;;15.47;47.88
74722;BME280;63470;49.826;6.740;2023-06-26T03:20:43;100040.22;;;15.46;47.87
74722;BME280;63470;49.826;6.740;2023-06-26T03:23:14;100040.28;;;15.42;47.93
74722;BME280;63470;49.826;6.740;2023-06-26T03:25:44;100046.16;;;15.38;47.99
74722;BME280;63470;49.826;6.740;2023-06-26T03:28:15;100051.25;;;15.35;48.04
74722;BME280;63470;49.826;6.740;2023-06-26T03:30:45;100063.45;;;15.32;48.11
74722;BME280;63470;49.826;6.740;2023-06-26T03:33:15;100058.63;;;15.27;48.10
74722;BME280;63470;49.826;6.740;2023-06-26T03:35:46;100058.00;;;15.23;48.12
74722;BME280;63470;49.826;6.740;2023-06-26T03:38:16;100059.76;;;15.22;48.14
74722;BME280;63470;49.826;6.740;2023-06-26T03:40:47;100059.47;;;15.27;48.04
74722;BME280;63470;49.826;6.740;2023-06-26T03:43:17;100058.95;;;15.30;48.02
74722;BME280;63470;49.826;6.740;2023-06-26T03:45:48;100064.14;;;15.35;47.98
74722;BME280;63470;49.826;6.740;2023-06-26T03:48:18;100064.39;;;15.38;48.01
74722;BME280;63470;49.826;6.740;2023-06-26T03:50:49;100067.75;;;15.42;47.99
74722;BME280;63470;49.826;6.740;2023-06-26T03:53:19;100074.22;;;15.47;48.00
74722;BME280;63470;49.826;6.740;2023-06-26T03:55:50;100074.81;;;15.53;48.01
74722;BME280;63470;49.826;6.740;2023-06-26T03:58:20;100072.84;;;15.61;48.00
74722;BME280;63470;49.826;6.740;2023-06-26T04:00:51;100079.28;;;15.70;47.94
74722;BME280;63470;49.826;6.740;2023-06-26T04:03:23;100076.95;;;15.77;47.88
74722;BME280;63470;49.826;6.740;2023-06-26T04:05:52;100076.87;;;15.83;47.84
74722;BME280;63470;49.826;6.740;2023-06-26T04:08:28;100079.16;;;15.90;47.77
74722;BME280;63470;49.826;6.740;2023-06-26T04:11:00;100075.16;;;15.96;47.74
74722;BME280;63470;49.826;6.740;2023-06-26T04:13:29;100083.32;;;16.04;47.71
74722;BME280;63470;49.826;6.740;2023-06-26T04:15:59;100083.56;;;16.15;47.68
74722;BME280;63470;49.826;6.740;2023-06-26T04:18:27;100087.33;;;16.26;47.61
74722;BME280;63470;49.826;6.740;2023-06-26T04:21:12;100088.14;;;16.40;47.54
74722;BME280;63470;49.826;6.740;2023-06-26T04:23:31;100088.91;;;16.56;47.40
74722;BME280;63470;49.826;6.740;2023-06-26T04:25:59;100088.16;;;16.72;47.31
74722;BME280;63470;49.826;6.740;2023-06-26T04:28:27;100088.03;;;16.89;47.18
74722;BME280;63470;49.826;6.740;2023-06-26T04:30:59;100088.09;;;17.03;47.07
74722;BME280;63470;49.826;6.740;2023-06-26T04:33:28;100094.88;;;17.18;47.01
74722;BME280;63470;49.826;6.740;2023-06-26T04:36:04;100102.08;;;17.31;46.95
74722;BME280;63470;49.826;6.740;2023-06-26T04:38:31;100088.75;;;17.45;46.87
74722;BME280;63470;49.826;6.740;2023-06-26T04:41:01;100089.98;;;17.61;46.77
74722;BME280;63470;49.826;6.740;2023-06-26T04:43:30;100095.20;;;17.83;46.63
74722;BME280;63470;49.826;6.740;2023-06-26T04:46:02;100094.70;;;18.05;46.45
74722;BME280;63470;49.826;6.740;2023-06-26T04:48:32;100098.27;;;18.28;46.32
74722;BME280;63470;49.826;6.740;2023-06-26T05:34:39;100114.84;;;19.87;46.24
74722;BME280;63470;49.826;6.740;2023-06-26T05:37:09;100114.58;;;20.05;46.08
74722;BME280;63470;49.826;6.740;2023-06-26T05:39:40;100123.80;;;20.30;45.92
74722;BME280;63470;49.826;6.740;2023-06-26T05:42:11;100124.16;;;20.67;45.59
74722;BME280;63470;49.826;6.740;2023-06-26T05:44:40;100120.40;;;21.63;44.36
74722;BME280;63470;49.826;6.740;2023-06-26T05:47:11;100122.70;;;21.95;44.10
74722;BME280;63470;49.826;6.740;2023-06-26T05:49:41;100124.98;;;21.91;44.20
74722;BME280;63470;49.826;6.740;2023-06-26T05:52:13;100126.18;;;22.64;43.67
74722;BME280;63470;49.826;6.740;2023-06-26T05:54:43;100126.58;;;23.67;43.19
74722;BME280;63470;49.826;6.740;2023-06-26T05:57:13;100130.44;;;24.49;42.67
74722;BME280;63470;49.826;6.740;2023-06-26T05:59:44;100129.30;;;24.79;42.62
74722;BME280;63470;49.826;6.740;2023-06-26T06:02:14;100127.78;;;24.31;43.29
74722;BME280;63470;49.826;6.740;2023-06-26T06:04:44;100134.00;;;23.60;44.25
74722;BME280;63470;49.826;6.740;2023-06-26T06:07:15;100134.31;;;23.08;44.97
74722;BME280;63470;49.826;6.740;2023-06-26T06:09:46;100144.35;;;22.83;45.23
74722;BME280;63470;49.826;6.740;2023-06-26T06:12:16;100146.16;;;22.96;44.96
74722;BME280;63470;49.826;6.740;2023-06-26T06:14:47;100138.83;;;23.85;44.24
74722;BME280;63470;49.826;6.740;2023-06-26T06:17:17;100141.34;;;24.46;43.76
74722;BME280;63470;49.826;6.740;2023-06-26T06:19:48;100148.84;;;25.03;43.33
74722;BME280;63470;49.826;6.740;2023-06-26T06:39:20;100147.27;;;25.10;44.77
74722;BME280;63470;49.826;6.740;2023-06-26T06:41:42;100148.23;;;25.57;44.54
74722;BME280;63470;49.826;6.740;2023-06-26T06:44:13;100146.55;;;26.30;43.74
74722;BME280;63470;49.826;6.740;2023-06-26T06:46:43;100151.15;;;26.77;43.31
74722;BME280;63470;49.826;6.740;2023-06-26T06:49:13;100154.73;;;27.04;43.25
74722;BME280;63470;49.826;6.740;2023-06-26T06:51:44;100157.72;;;26.72;43.79
74722;BME280;63470;49.826;6.740;2023-06-26T06:54:17;100159.31;;;26.34;44.30
74722;BME280;63470;49.826;6.740;2023-06-26T06:56:45;100165.44;;;26.34;44.22
74722;BME280;63470;49.826;6.740;2023-06-26T06:59:15;100169.25;;;26.60;43.93
74722;BME280;63470;49.826;6.740;2023-06-26T07:01:46;100178.05;;;26.62;43.99
74722;BME280;63470;49.826;6.740;2023-06-26T07:04:16;100181.19;;;26.49;44.08
74722;BME280;63470;49.826;6.740;2023-06-26T07:06:47;100180.59;;;26.67;43.84
74722;BME280;63470;49.826;6.740;2023-06-26T07:09:17;100179.34;;;26.68;43.93
74722;BME280;63470;49.826;6.740;2023-06-26T07:11:51;100182.79;;;26.56;44.10
74722;BME280;63470;49.826;6.740;2023-06-26T07:14:18;100179.80;;;26.46;44.17
74722;BME280;63470;49.826;6.740;2023-06-26T07:16:49;100174.25;;;26.53;44.04
74722;BME280;63470;49.826;6.740;2023-06-26T07:19:19;100178.08;;;26.53;44.03
74722;BME280;63470;49.826;6.740;2023-06-26T07:21:49;100178.69;;;26.42;44.12
74722;BME280;63470;49.826;6.740;2023-06-26T07:24:20;100176.11;;;26.36;44.18
74722;BME280;63470;49.826;6.740;2023-06-26T07:26:50;100176.44;;;26.32;44.30
74722;BME280;63470;49.826;6.740;2023-06-26T07:29:21;100176.95;;;26.32;44.31
74722;BME280;63470;49.826;6.740;2023-06-26T07:31:52;100178.78;;;26.35;44.24
74722;BME280;63470;49.826;6.740;2023-06-26T07:34:25;100182.23;;;26.35;44.20
74722;BME280;63470;49.826;6.740;2023-06-26T07:36:52;100181.33;;;26.41;44.12
74722;BME280;63470;49.826;6.740;2023-06-26T07:39:23;100179.91;;;26.44;44.08
74722;BME280;63470;49.826;6.740;2023-06-26T07:41:56;100177.34;;;26.47;44.03
74722;BME280;63470;49.826;6.740;2023-06-26T07:44:24;100181.12;;;26.49;44.00
74722;BME280;63470;49.826;6.740;2023-06-26T07:46:54;100184.18;;;26.57;43.88
74722;BME280;63470;49.826;6.740;2023-06-26T07:49:25;100191.12;;;26.65;43.75
74722;BME280;63470;49.826;6.740;2023-06-26T07:51:56;100192.44;;;26.73;43.65
74722;BME280;63470;49.826;6.740;2023-06-26T07:54:26;100197.55;;;26.84;43.56
74722;BME280;63470;49.826;6.740;2023-06-26T07:57:00;100196.35;;;27.00;43.38
74722;BME280;63470;49.826;6.740;2023-06-26T07:59:32;100191.55;;;27.17;43.19
74722;BME280;63470;49.826;6.740;2023-06-26T08:02:00;100195.25;;;27.27;43.05
74722;BME280;63470;49.826;6.740;2023-06-26T08:04:31;100193.33;;;27.56;42.57
74722;BME280;63470;49.826;6.740;2023-06-26T08:06:59;100189.11;;;27.50;42.66
74722;BME280;63470;49.826;6.740;2023-06-26T08:09:29;100195.83;;;27.51;42.81
74722;BME280;63470;49.826;6.740;2023-06-26T08:11:59;100191.30;;;27.64;42.77
74722;BME280;63470;49.826;6.740;2023-06-26T08:14:32;100185.92;;;28.07;42.22
74722;BME280;63470;49.826;6.740;2023-06-26T08:17:01;100193.09;;;28.63;41.54
74722;BME280;63470;49.826;6.740;2023-06-26T08:19:33;100190.59;;;29.24;40.75
74722;BME280;63470;49.826;6.740;2023-06-26T08:22:01;100187.52;;;30.04;39.87
74722;BME280;63470;49.826;6.740;2023-06-26T08:24:32;100185.75;;;30.57;39.28
74722;BME280;63470;49.826;6.740;2023-06-26T08:27:04;100186.45;;;31.27;38.59
74722;BME280;63470;49.826;6.740;2023-06-26T08:29:33;100189.09;;;31.73;38.28
74722;BME280;63470;49.826;6.740;2023-06-26T08:32:05;100186.94;;;32.33;37.85
74722;BME280;63470;49.826;6.740;2023-06-26T08:34:34;100191.81;;;32.76;37.65
74722;BME280;63470;49.826;6.740;2023-06-26T08:37:05;100184.67;;;33.03;37.72
74722;BME280;63470;49.826;6.740;2023-06-26T08:39:35;100182.27;;;33.10;37.94
74722;BME280;63470;49.826;6.740;2023-06-26T08:42:05;100188.22;;;33.20;38.30
74722;BME280;63470;49.826;6.740;2023-06-26T08:44:36;100188.91;;;33.15;38.87
74722;BME280;63470;49.826;6.740;2023-06-26T08:47:07;100184.88;;;33.34;39.05
74722;BME280;63470;49.826;6.740;2023-06-26T08:52:33;100185.71;;;33.46;39.56
74722;BME280;63470;49.826;6.740;2023-06-26T08:54:43;100190.61;;;33.61;39.70
74722;BME280;63470;49.826;6.740;2023-06-26T08:57:17;100191.29;;;33.69;39.85
74722;BME280;63470;49.826;6.740;2023-06-26T08:59:38;100195.54;;;33.72;40.02
74722;BME280;63470;49.826;6.740;2023-06-26T09:02:10;100197.41;;;33.86;40.10
74722;BME280;63470;49.826;6.740;2023-06-26T09:04:43;100198.72;;;34.09;39.97
74722;BME280;63470;49.826;6.740;2023-06-26T09:07:10;100191.69;;;34.32;39.80
74722;BME280;63470;49.826;6.740;2023-06-26T09:09:41;100192.19;;;34.43;39.83
74722;BME280;63470;49.826;6.740;2023-06-26T09:12:13;100203.51;;;34.54;39.83
74722;BME280;63470;49.826;6.740;2023-06-26T09:14:41;100208.14;;;34.63;39.77
74722;BME280;63470;49.826;6.740;2023-06-26T09:17:15;100203.44;;;34.65;39.82
74722;BME280;63470;49.826;6.740;2023-06-26T09:19:47;100199.84;;;34.68;39.81
74722;BME280;63470;49.826;6.740;2023-06-26T09:22:17;100196.04;;;34.82;39.70
74722;BME280;63470;49.826;6.740;2023-06-26T09:24:43;100198.28;;;34.87;39.77
74722;BME280;63470;49.826;6.740;2023-06-26T09:27:15;100199.27;;;34.78;39.91
74722;BME280;63470;49.826;6.740;2023-06-26T09:29:45;100195.56;;;33.96;40.92
74722;BME280;63470;49.826;6.740;2023-06-26T09:32:15;100197.62;;;33.63;41.37
74722;BME280;63470;49.826;6.740;2023-06-26T09:34:45;100200.13;;;33.92;41.05
74722;BME280;63470;49.826;6.740;2023-06-26T09:37:16;100193.39;;;34.31;40.59
74722;BME280;63470;49.826;6.740;2023-06-26T09:39:46;100182.94;;;34.49;40.31
74722;BME280;63470;49.826;6.740;2023-06-26T09:42:20;100188.83;;;34.74;40.08
74722;BME280;63470;49.826;6.740;2023-06-26T09:44:51;100188.66;;;34.64;40.11
74722;BME280;63470;49.826;6.740;2023-06-26T09:47:19;100191.28;;;34.43;40.35
74722;BME280;63470;49.826;6.740;2023-06-26T09:49:52;100193.81;;;34.39;40.40
74722;BME280;63470;49.826;6.740;2023-06-26T09:52:21;100187.88;;;34.42;40.31
74722;BME280;63470;49.826;6.740;2023-06-26T09:55:08;100190.78;;;34.41;40.33
74722;BME280;63470;49.826;6.740;2023-06-26T09:57:21;100189.96;;;34.54;40.22
74722;BME280;63470;49.826;6.740;2023-06-26T09:59:52;100191.41;;;34.58;40.18
74722;BME280;63470;49.826;6.740;2023-06-26T10:02:23;100199.08;;;34.67;40.08
74722;BME280;63470;49.826;6.740;2023-06-26T10:04:53;100193.97;;;34.74;40.03
74722;BME280;63470;49.826;6.740;2023-06-26T10:07:24;100202.02;;;34.76;40.09
74722;BME280;63470;49.826;6.740;2023-06-26T10:09:58;100202.37;;;34.73;40.11
74722;BME280;63470;49.826;6.740;2023-06-26T10:12:30;100198.70;;;34.54;40.36
74722;BME280;63470;49.826;6.740;2023-06-26T10:14:56;100198.14;;;34.64;40.23
74722;BME280;63470;49.826;6.740;2023-06-26T10:17:28;100206.94;;;34.63;40.23
74722;BME280;63470;49.826;6.740;2023-06-26T10:20:02;100218.11;;;34.40;40.52
74722;BME280;63470;49.826;6.740;2023-06-26T10:22:31;100213.66;;;34.32;40.64
74722;BME280;63470;49.826;6.740;2023-06-26T10:24:59;100211.10;;;34.54;40.41
74722;BME280;63470;49.826;6.740;2023-06-26T10:27:35;100209.24;;;34.23;40.70
74722;BME280;63470;49.826;6.740;2023-06-26T10:30:03;100215.22;;;34.07;40.95
74722;BME280;63470;49.826;6.740;2023-06-26T10:32:30;100216.42;;;34.25;40.75
74722;BME280;63470;49.826;6.740;2023-06-26T10:35:05;100222.39;;;34.15;40.84
74722;BME280;63470;49.826;6.740;2023-06-26T10:37:47;100224.83;;;34.03;41.02
74722;BME280;63470;49.826;6.740;2023-06-26T10:40:04;100230.45;;;34.32;40.70
74722;BME280;63470;49.826;6.740;2023-06-26T10:42:38;100232.24;;;34.26;40.76
74722;BME280;63470;49.826;6.740;2023-06-26T10:45:17;100230.16;;;34.35;40.69
74722;BME280;63470;49.826;6.740;2023-06-26T10:47:33;100231.01;;;34.42;40.65
74722;BME280;63470;49.826;6.740;2023-06-26T10:50:24;100236.73;;;34.48;40.62
74722;BME280;63470;49.826;6.740;2023-06-26T10:52:36;100249.23;;;34.26;40.88
74722;BME280;63470;49.826;6.740;2023-06-26T10:55:04;100252.34;;;33.60;41.66
74722;BME280;63470;49.826;6.740;2023-06-26T10:57:35;100247.14;;;33.50;41.75
74722;BME280;63470;49.826;6.740;2023-06-26T11:00:09;100248.41;;;33.47;41.76
74722;BME280;63470;49.826;6.740;2023-06-26T11:02:47;100245.95;;;33.58;41.62
74722;BME280;63470;49.826;6.740;2023-06-26T11:05:06;100252.91;;;33.72;41.47
74722;BME280;63470;49.826;6.740;2023-06-26T11:07:36;100259.30;;;33.74;41.46
74722;BME280;63470;49.826;6.740;2023-06-26T11:10:09;100259.86;;;33.82;41.39
74722;BME280;63470;49.826;6.740;2023-06-26T11:12:42;100253.27;;;34.06;41.16
74722;BME280;63470;49.826;6.740;2023-06-26T11:15:11;100256.20;;;34.23;41.00
74722;BME280;63470;49.826;6.740;2023-06-26T11:17:38;100257.69;;;34.08;41.16
74722;BME280;63470;49.826;6.740;2023-06-26T11:20:11;100260.91;;;33.44;41.99
74722;BME280;63470;49.826;6.740;2023-06-26T11:22:40;100260.90;;;33.05;42.42
74722;BME280;63470;49.826;6.740;2023-06-26T11:25:10;100254.56;;;32.92;42.58
74722;BME280;63470;49.826;6.740;2023-06-26T11:27:42;100261.25;;;33.12;42.27
74722;BME280;63470;49.826;6.740;2023-06-26T11:30:11;100268.86;;;33.45;41.84
74722;BME280;63470;49.826;6.740;2023-06-26T11:32:39;100266.45;;;33.55;41.75
74722;BME280;63470;49.826;6.740;2023-06-26T11:35:10;100260.75;;;33.12;42.26
74722;BME280;63470;49.826;6.740;2023-06-26T11:37:43;100266.54;;;32.81;42.63
74722;BME280;63470;49.826;6.740;2023-06-26T11:40:20;100271.76;;;32.70;42.72
74722;BME280;63470;49.826;6.740;2023-06-26T11:42:41;100269.58;;;32.85;42.54
74722;BME280;63470;49.826;6.740;2023-06-26T11:45:11;100262.52;;;33.10;42.21
74722;BME280;63470;49.826;6.740;2023-06-26T11:47:42;100271.82;;;33.43;41.86
74722;BME280;63470;49.826;6.740;2023-06-26T11:50:16;100269.64;;;33.71;41.53
74722;BME280;63470;49.826;6.740;2023-06-26T11:52:42;100274.25;;;33.74;41.53
74722;BME280;63470;49.826;6.740;2023-06-26T11:55:13;100278.44;;;33.63;41.74
74722;BME280;63470;49.826;6.740;2023-06-26T11:57:47;100278.53;;;33.64;41.75
74722;BME280;63470;49.826;6.740;2023-06-26T12:00:14;100281.67;;;33.42;42.02
74722;BME280;63470;49.826;6.740;2023-06-26T12:02:45;100276.03;;;33.49;41.94
74722;BME280;63470;49.826;6.740;2023-06-26T12:05:15;100277.92;;;33.65;41.72
74722;BME280;63470;49.826;6.740;2023-06-26T12:07:47;100278.03;;;33.86;41.46
74722;BME280;63470;49.826;6.740;2023-06-26T12:10:17;100274.50;;;34.05;41.25
74722;BME280;63470;49.826;6.740;2023-06-26T12:12:46;100270.15;;;34.04;41.35
74722;BME280;63470;49.826;6.740;2023-06-26T12:15:17;100273.86;;;33.79;41.72
74722;BME280;63470;49.826;6.740;2023-06-26T12:17:47;100281.23;;;33.67;41.89
74722;BME280;63470;49.826;6.740;2023-06-26T12:20:22;100283.50;;;33.32;42.26
74722;BME280;63470;49.826;6.740;2023-06-26T12:22:49;100288.89;;;32.94;42.67
74722;BME280;63470;49.826;6.740;2023-06-26T12:25:23;100285.86;;;32.46;43.18
74722;BME280;63470;49.826;6.740;2023-06-26T12:27:50;100274.33;;;31.92;43.72
74722;BME280;63470;49.826;6.740;2023-06-26T12:30:20;100279.27;;;31.79;43.73
74722;BME280;63470;49.826;6.740;2023-06-26T12:32:50;100279.72;;;31.81;43.45
74722;BME280;63470;49.826;6.740;2023-06-26T12:35:21;100281.28;;;32.08;43.02
74722;BME280;63470;49.826;6.740;2023-06-26T12:37:53;100285.95;;;32.51;42.32
74722;BME280;63470;49.826;6.740;2023-06-26T12:40:25;100281.42;;;32.68;42.07
74722;BME280;63470;49.826;6.740;2023-06-26T12:42:53;100294.81;;;32.33;42.46
74722;BME280;63470;49.826;6.740;2023-06-26T12:45:26;100287.75;;;32.15;42.63
74722;BME280;63470;49.826;6.740;2023-06-26T12:47:53;100296.82;;;32.08;42.69
74722;BME280;63470;49.826;6.740;2023-06-26T12:50:24;100296.78;;;32.27;42.44
74722;BME280;63470;49.826;6.740;2023-06-26T12:52:59;100301.43;;;32.71;41.90
74722;BME280;63470;49.826;6.740;2023-06-26T12:55:24;100301.24;;;32.90;41.62
74722;BME280;63470;49.826;6.740;2023-06-26T12:57:55;100303.28;;;32.86;41.64
74722;BME280;63470;49.826;6.740;2023-06-26T13:00:31;100300.31;;;33.07;41.45
74722;BME280;63470;49.826;6.740;2023-06-26T13:02:56;100307.12;;;33.44;41.03
74722;BME280;63470;49.826;6.740;2023-06-26T13:05:26;100311.69;;;33.70;40.76
74722;BME280;63470;49.826;6.740;2023-06-26T13:08:00;100307.55;;;33.75;40.82
74722;BME280;63470;49.826;6.740;2023-06-26T13:10:29;100317.16;;;34.00;40.68
74722;BME280;63470;49.826;6.740;2023-06-26T13:12:58;100305.30;;;33.96;40.76
74722;BME280;63470;49.826;6.740;2023-06-26T13:15:28;100291.38;;;33.62;41.20
74722;BME280;63470;49.826;6.740;2023-06-26T13:17:59;100303.53;;;33.56;41.26
74722;BME280;63470;49.826;6.740;2023-06-26T13:20:29;100307.31;;;33.83;40.97
74722;BME280;63470;49.826;6.740;2023-06-26T13:23:00;100307.17;;;34.09;40.70
74722;BME280;63470;49.826;6.740;2023-06-26T13:25:30;100316.36;;;34.17;40.66
74722;BME280;63470;49.826;6.740;2023-06-26T13:28:01;100315.15;;;33.98;40.83
74722;BME280;63470;49.826;6.740;2023-06-26T13:30:31;100306.45;;;33.74;41.07
74722;BME280;63470;49.826;6.740;2023-06-26T13:33:02;100304.71;;;33.15;41.75
74722;BME280;63470;49.826;6.740;2023-06-26T13:35:32;100310.16;;;32.51;42.41
74722;BME280;63470;49.826;6.740;2023-06-26T13:38:03;100307.88;;;32.10;42.81
74722;BME280;63470;49.826;6.740;2023-06-26T13:40:33;100304.19;;;32.06;42.79
74722;BME280;63470;49.826;6.740;2023-06-26T13:43:04;100296.47;;;32.44;42.17
74722;BME280;63470;49.826;6.740;2023-06-26T13:45:34;100305.66;;;32.84;41.49
74722;BME280;63470;49.826;6.740;2023-06-26T13:48:05;100312.38;;;32.73;41.43
74722;BME280;63470;49.826;6.740;2023-06-26T13:50:35;100318.80;;;32.33;41.75
74722;BME280;63470;49.826;6.740;2023-06-26T13:53:06;100306.73;;;31.79;42.24
74722;BME280;63470;49.826;6.740;2023-06-26T13:55:39;100306.53;;;31.46;42.44
74722;BME280;63470;49.826;6.740;2023-06-26T13:58:08;100310.48;;;31.25;42.54
74722;BME280;63470;49.826;6.740;2023-06-26T14:00:37;100307.04;;;31.68;41.92
74722;BME280;63470;49.826;6.740;2023-06-26T14:03:08;100307.38;;;32.06;41.33
74722;BME280;63470;49.826;6.740;2023-06-26T14:05:38;100311.17;;;32.17;41.07
74722;BME280;63470;49.826;6.740;2023-06-26T14:08:12;100311.08;;;31.99;41.24
74722;BME280;63470;49.826;6.740;2023-06-26T14:10:40;100312.56;;;31.90;41.26